Terminal Aerodrome Forecast
Issued by NWS Brownsville, TX

Home | Current Version | Previous Version | Text Only | Print | Product List | Glossary On
Versions: 1 2 3 4 5 6 7 8 9 10 11 12 13
000
FTUS44 KBRO 211133
TAFHRL
TAF
KHRL 211133Z 2112/2212 15006KT P6SM VCSH SCT020
      TEMPO 2112/2113 5SM BR BKN020
     FM211500 14017G23KT P6SM VCSH SCT030 BKN040
     FM220100 13012KT P6SM FEW050
     FM220600 15006KT P6SM FEW015=

USA.gov is the U.S. government's official web portal to all federal, state and local government web resources and services.